Time;durP1;ratioP1;P1;durP2;ratioP2;P2;SDS_P1;SDS_P2;PMS_P1;PMS_P2;Temp;Humidity;BMP_temperature;BMP_pressure;BME280_temperature;BME280_humidity;BME280_pressure;Samples;Min_cycle;Max_cycle;Signal;HPM_P1;HPM_P2
2022/01/30 07:39:08;;;;;;;17.58;8.52;;;;;;;;;;5098689;23;20449;-62
2022/01/30 07:41:34;;;;;;;14.70;7.32;;;;;;;;;;4972362;28;20035;-61
2022/01/30 07:44:01;;;;;;;14.90;6.65;;;;;;;;;;4972246;28;20046;-62
2022/01/30 07:46:27;;;;;;;16.55;7.85;;;;;;;;;;4972025;28;20513;-62
2022/01/30 07:48:53;;;;;;;17.65;8.18;;;;;;;;;;4971762;28;20073;-61
2022/01/30 07:51:19;;;;;;;14.77;7.05;;;;;;;;;;4971987;28;20502;-62
2022/01/30 07:53:46;;;;;;;20.17;7.10;;;;;;;;;;4973204;28;20042;-61
2022/01/30 07:56:12;;;;;;;14.95;7.00;;;;;;;;;;4976340;28;20038;-61
2022/01/30 07:58:38;;;;;;;14.30;6.57;;;;;;;;;;4976144;28;20030;-62
2022/01/30 08:01:04;;;;;;;16.20;7.60;;;;;;;;;;4976088;28;20431;-62
2022/01/30 08:03:30;;;;;;;14.40;6.90;;;;;;;;;;4975779;28;20035;-60
2022/01/30 08:05:57;;;;;;;27.25;15.60;;;;;;;;;;4975635;28;20509;-61
2022/01/30 08:08:23;;;;;;;32.10;19.10;;;;;;;;;;4975768;28;20030;-62
2022/01/30 08:10:49;;;;;;;22.05;11.80;;;;;;;;;;4975803;28;20043;-60
2022/01/30 08:13:16;;;;;;;22.27;13.13;;;;;;;;;;4975853;28;20545;-60
2022/01/30 08:15:43;;;;;;;22.52;12.10;;;;;;;;;;4975796;28;20489;-61
2022/01/30 08:18:09;;;;;;;23.25;8.10;;;;;;;;;;4975887;28;20019;-60
2022/01/30 08:20:35;;;;;;;17.83;8.68;;;;;;;;;;4975910;28;20062;-60
2022/01/30 08:23:07;;;;;;;18.60;8.27;;;;;;;;;;4975484;28;20023;-61
2022/01/30 08:25:33;;;;;;;18.75;7.75;;;;;;;;;;4975779;28;20518;-61
2022/01/30 08:27:59;;;;;;;20.00;8.50;;;;;;;;;;4975754;28;20023;-61
2022/01/30 08:30:27;;;;;;;17.40;7.95;;;;;;;;;;4975624;28;20069;-61
2022/01/30 08:32:53;;;;;;;15.25;7.43;;;;;;;;;;4975344;28;20360;-61
2022/01/30 08:35:20;;;;;;;19.17;9.80;;;;;;;;;;4975454;28;20034;-61
2022/01/30 08:37:46;;;;;;;17.02;7.57;;;;;;;;;;4958436;28;20368;-60
2022/01/30 08:40:14;;;;;;;19.17;7.47;;;;;;;;;;4975012;28;20183;-61
2022/01/30 08:42:40;;;;;;;16.23;6.68;;;;;;;;;;4975390;28;20034;-61
2022/01/30 08:45:08;;;;;;;16.52;6.95;;;;;;;;;;4975213;28;20030;-60
2022/01/30 08:47:35;;;;;;;15.82;6.95;;;;;;;;;;4974955;28;20059;-62
2022/01/30 08:50:01;;;;;;;19.60;6.70;;;;;;;;;;4974997;28;20038;-59
2022/01/30 08:52:27;;;;;;;13.40;6.45;;;;;;;;;;4974832;28;20462;-61
2022/01/30 08:54:53;;;;;;;13.43;5.93;;;;;;;;;;4975220;28;20498;-60
2022/01/30 08:57:19;;;;;;;14.05;5.97;;;;;;;;;;4959903;28;20118;-60
2022/01/30 08:59:46;;;;;;;13.50;6.00;;;;;;;;;;4949371;29;20023;-60
2022/01/30 09:02:13;;;;;;;12.73;5.75;;;;;;;;;;4949836;29;20445;-61
2022/01/30 09:04:39;;;;;;;15.73;6.00;;;;;;;;;;4955726;28;20027;-61
2022/01/30 09:07:06;;;;;;;15.35;6.25;;;;;;;;;;4955223;29;20094;-59
2022/01/30 09:09:32;;;;;;;14.93;5.30;;;;;;;;;;4938230;29;20384;-61
2022/01/30 09:11:58;;;;;;;12.68;5.47;;;;;;;;;;4955717;29;20688;-61
2022/01/30 09:14:25;;;;;;;11.93;5.03;;;;;;;;;;4955325;29;20027;-61
2022/01/30 09:16:51;;;;;;;11.40;4.90;;;;;;;;;;4955910;29;20045;-61
2022/01/30 09:19:17;;;;;;;9.80;4.53;;;;;;;;;;4955564;29;20046;-61
2022/01/30 09:21:43;;;;;;;8.90;4.45;;;;;;;;;;4955394;29;20399;-61
2022/01/30 09:24:09;;;;;;;10.40;4.20;;;;;;;;;;4955135;29;20547;-61
2022/01/30 09:26:35;;;;;;;12.45;4.20;;;;;;;;;;4955739;29;20042;-61
2022/01/30 09:29:01;;;;;;;14.13;6.25;;;;;;;;;;4955372;29;20029;-61
2022/01/30 09:31:27;;;;;;;11.57;5.40;;;;;;;;;;4955385;29;20028;-61
2022/01/30 09:33:53;;;;;;;11.48;5.05;;;;;;;;;;4955142;29;20027;-61
2022/01/30 09:36:19;;;;;;;11.10;4.90;;;;;;;;;;4954984;29;20039;-61
2022/01/30 09:38:45;;;;;;;8.68;4.63;;;;;;;;;;4966686;28;20374;-61
2022/01/30 09:41:11;;;;;;;12.88;4.78;;;;;;;;;;4974265;28;20495;-61
2022/01/30 09:43:38;;;;;;;9.35;4.72;;;;;;;;;;4974181;28;20070;-61
2022/01/30 09:46:04;;;;;;;11.45;4.60;;;;;;;;;;4974387;28;20844;-61
2022/01/30 09:48:34;;;;;;;9.27;4.30;;;;;;;;;;4974042;28;20030;-61
2022/01/30 09:51:01;;;;;;;11.80;6.07;;;;;;;;;;4974100;28;20043;-61
2022/01/30 09:53:27;;;;;;;10.93;5.60;;;;;;;;;;4973952;28;20394;-61
2022/01/30 09:55:53;;;;;;;12.85;5.60;;;;;;;;;;4974446;28;20113;-61
2022/01/30 09:58:19;;;;;;;12.05;5.97;;;;;;;;;;4973845;28;20027;-61
2022/01/30 10:00:46;;;;;;;11.45;5.20;;;;;;;;;;4973411;28;20031;-61
2022/01/30 10:03:12;;;;;;;10.75;5.22;;;;;;;;;;4973682;28;20022;-61
2022/01/30 10:05:39;;;;;;;9.63;4.63;;;;;;;;;;4973757;28;20100;-61
2022/01/30 10:08:05;;;;;;;13.07;5.30;;;;;;;;;;4973374;28;20027;-61
2022/01/30 10:10:34;;;;;;;14.80;5.95;;;;;;;;;;4973548;28;20047;-61
2022/01/30 10:13:00;;;;;;;10.07;4.55;;;;;;;;;;4973945;28;20054;-61
2022/01/30 10:15:26;;;;;;;10.75;5.07;;;;;;;;;;4973300;28;20106;-61
2022/01/30 10:17:53;;;;;;;10.30;4.55;;;;;;;;;;4973381;28;20097;-61
2022/01/30 10:20:19;;;;;;;11.93;5.80;;;;;;;;;;4973588;28;20090;-61
2022/01/30 10:23:01;;;;;;;12.02;5.85;;;;;;;;;;4973532;28;20455;-61
2022/01/30 10:25:27;;;;;;;;;;;;;;;;;;4974012;28;20078;-61
2022/01/30 10:28:13;;;;;;;17.73;8.57;;;;;;;;;;4973481;28;19913;-61
2022/01/30 10:30:44;;;;;;;22.50;10.02;;;;;;;;;;4973289;28;20042;-61
2022/01/30 10:33:12;;;;;;;18.08;7.95;;;;;;;;;;4973167;28;20030;-61
2022/01/30 10:35:54;;;;;;;19.25;9.63;;;;;;;;;;4973164;28;20471;-62
2022/01/30 10:38:37;;;;;;;23.58;11.57;;;;;;;;;;4972713;28;20053;-61
2022/01/30 10:41:12;;;;;;;26.60;11.50;;;;;;;;;;4973184;28;20431;-61
2022/01/30 10:43:57;;;;;;;25.95;12.25;;;;;;;;;;4973327;28;20038;-61
2022/01/30 10:46:27;;;;;;;26.08;12.50;;;;;;;;;;4973389;28;20030;-63
2022/01/30 10:49:22;;;;;;;28.70;13.27;;;;;;;;;;4973142;28;20026;-61
2022/01/30 10:52:07;;;;;;;27.52;12.65;;;;;;;;;;4875877;29;20127;-61
2022/01/30 10:54:34;;;;;;;24.35;12.15;;;;;;;;;;4875673;29;20486;-61
2022/01/30 10:57:05;;;;;;;28.52;13.00;;;;;;;;;;4876026;29;20139;-62
2022/01/30 10:59:31;;;;;;;33.30;14.10;;;;;;;;;;4875715;29;20477;-61
2022/01/30 11:02:10;;;;;;;24.90;12.43;;;;;;;;;;4875433;29;20384;-61
2022/01/30 11:04:36;;;;;;;25.83;11.77;;;;;;;;;;4875723;29;20037;-61
2022/01/30 11:07:03;;;;;;;20.88;10.65;;;;;;;;;;4875401;29;20033;-62
2022/01/30 11:09:37;;;;;;;25.88;12.18;;;;;;;;;;4874948;29;20130;-62
2022/01/30 11:12:07;;;;;;;22.48;10.90;;;;;;;;;;4875752;29;20041;-61
2022/01/30 11:14:37;;;;;;;25.33;11.50;;;;;;;;;;4875555;29;20048;-61
2022/01/30 11:17:05;;;;;;;25.35;11.85;;;;;;;;;;4875140;29;20079;-61
2022/01/30 11:19:34;;;;;;;23.52;12.23;;;;;;;;;;4875253;29;20029;-61
2022/01/30 11:22:01;;;;;;;22.38;10.70;;;;;;;;;;4875247;29;20115;-61
2022/01/30 11:24:28;;;;;;;20.83;10.20;;;;;;;;;;4874933;29;20460;-61
2022/01/30 11:26:54;;;;;;;21.73;10.50;;;;;;;;;;4875059;29;20072;-61
2022/01/30 11:29:21;;;;;;;22.15;10.15;;;;;;;;;;4969113;28;20034;-61
2022/01/30 11:31:47;;;;;;;26.20;11.73;;;;;;;;;;4972351;28;20034;-61
2022/01/30 11:34:14;;;;;;;20.88;10.65;;;;;;;;;;4972452;28;20718;-60
2022/01/30 11:36:41;;;;;;;22.38;10.55;;;;;;;;;;4972317;28;20066;-60
2022/01/30 11:39:08;;;;;;;18.10;9.82;;;;;;;;;;4972014;28;20050;-62
2022/01/30 11:41:34;;;;;;;21.55;9.40;;;;;;;;;;4972304;28;20490;-61
2022/01/30 11:44:19;;;;;;;17.85;10.20;;;;;;;;;;4972460;28;20035;-60
2022/01/30 11:46:45;;;;;;;20.33;10.18;;;;;;;;;;4972373;28;20406;-61
2022/01/30 11:49:12;;;;;;;24.55;11.48;;;;;;;;;;4972277;28;20503;-61
2022/01/30 11:51:48;;;;;;;22.50;10.65;;;;;;;;;;4971856;28;20521;-61
2022/01/30 11:54:33;;;;;;;20.42;10.90;;;;;;;;;;4971902;28;20059;-61
2022/01/30 11:56:59;;;;;;;23.90;11.13;;;;;;;;;;4972555;28;20054;-61
2022/01/30 11:59:38;;;;;;;26.73;11.80;;;;;;;;;;4972370;28;20109;-61
2022/01/30 12:02:23;;;;;;;30.85;13.07;;;;;;;;;;4971965;28;20063;-61
2022/01/30 12:04:54;;;;;;;31.25;15.63;;;;;;;;;;4972095;28;20481;-61
2022/01/30 12:07:36;;;;;;;24.83;12.85;;;;;;;;;;4972022;28;20027;-61
2022/01/30 12:10:02;;;;;;;;;;;;;;;;;;4972424;28;20117;-61
2022/01/30 12:12:46;;;;;;;22.92;10.75;;;;;;;;;;4971940;28;20001;-61
2022/01/30 12:15:32;;;;;;;27.60;12.98;;;;;;;;;;4971724;28;20035;-61
2022/01/30 12:17:58;;;;;;;23.52;12.60;;;;;;;;;;4971968;28;20492;-61
2022/01/30 12:20:24;;;;;;;22.30;11.13;;;;;;;;;;4971837;28;20457;-61
2022/01/30 12:22:51;;;;;;;20.92;10.57;;;;;;;;;;4972032;28;20067;-61
2022/01/30 12:25:25;;;;;;;25.13;13.63;;;;;;;;;;4971905;28;20023;-62
2022/01/30 12:27:55;;;;;;;21.52;10.90;;;;;;;;;;4971815;28;20067;-61
2022/01/30 12:30:35;;;;;;;27.75;13.45;;;;;;;;;;4971611;28;20034;-62
2022/01/30 12:33:02;;;;;;;27.08;12.07;;;;;;;;;;4971548;28;20022;-62
2022/01/30 12:35:29;;;;;;;22.80;12.40;;;;;;;;;;4971686;28;20027;-62
2022/01/30 12:37:55;;;;;;;23.85;11.90;;;;;;;;;;4971105;28;20039;-62
2022/01/30 12:40:22;;;;;;;25.17;11.50;;;;;;;;;;4973438;28;20094;-62
2022/01/30 12:42:48;;;;;;;22.05;12.02;;;;;;;;;;4975196;28;20094;-62
2022/01/30 12:45:15;;;;;;;21.05;11.30;;;;;;;;;;4975142;28;20031;-62
2022/01/30 12:47:52;;;;;;;23.38;12.07;;;;;;;;;;4975450;28;20535;-62
2022/01/30 12:50:19;;;;;;;21.20;10.50;;;;;;;;;;4974980;28;20031;-61
2022/01/30 12:52:51;;;;;;;23.92;10.40;;;;;;;;;;4975056;28;20034;-62
2022/01/30 12:55:17;;;;;;;;;;;;;;;;;;4975324;28;20482;-61
2022/01/30 12:57:44;;;;;;;27.02;13.82;;;;;;;;;;4975115;28;19912;-61
2022/01/30 13:00:11;;;;;;;25.27;12.68;;;;;;;;;;4975164;28;20038;-61
2022/01/30 13:02:38;;;;;;;22.48;12.20;;;;;;;;;;4974790;28;20389;-63
2022/01/30 13:05:08;;;;;;;23.40;11.57;;;;;;;;;;4974938;28;20035;-61
2022/01/30 13:07:35;;;;;;;22.33;11.52;;;;;;;;;;4974657;28;20047;-61
2022/01/30 13:10:04;;;;;;;23.60;11.82;;;;;;;;;;4974333;28;20042;-61
2022/01/30 13:12:31;;;;;;;26.38;12.10;;;;;;;;;;4975284;28;20035;-61
2022/01/30 13:14:57;;;;;;;24.88;11.35;;;;;;;;;;4974552;28;20537;-60
2022/01/30 13:17:30;;;;;;;19.27;9.82;;;;;;;;;;4974778;28;20031;-62
2022/01/30 13:19:57;;;;;;;17.33;9.23;;;;;;;;;;4974542;28;20041;-62
2022/01/30 13:22:33;;;;;;;17.90;10.23;;;;;;;;;;4974736;28;20394;-61
2022/01/30 13:25:00;;;;;;;18.23;10.02;;;;;;;;;;4974268;28;20493;-63
2022/01/30 13:27:26;;;;;;;17.67;8.35;;;;;;;;;;4974605;28;20114;-62
2022/01/30 13:29:55;;;;;;;15.68;7.25;;;;;;;;;;4974350;28;20073;-61
2022/01/30 13:32:23;;;;;;;17.17;8.05;;;;;;;;;;4974261;28;20039;-61
2022/01/30 13:34:49;;;;;;;18.35;8.70;;;;;;;;;;4974292;28;20054;-62
2022/01/30 13:37:17;;;;;;;18.40;9.10;;;;;;;;;;4973955;28;20031;-61
2022/01/30 13:39:48;;;;;;;15.18;8.13;;;;;;;;;;4954779;29;20476;-60
2022/01/30 13:47:51;;;;;;;17.08;9.20;;;;;;;;;;4914235;29;20040;-60
2022/01/30 13:50:18;;;;;;;21.95;11.15;;;;;;;;;;4914385;29;20052;-60
2022/01/30 13:52:44;;;;;;;24.20;12.15;;;;;;;;;;4913690;29;20073;-60
2022/01/30 13:55:11;;;;;;;22.50;11.13;;;;;;;;;;4914196;29;20028;-61
2022/01/30 13:57:38;;;;;;;23.67;11.75;;;;;;;;;;4914348;29;20036;-62
2022/01/30 14:00:12;;;;;;;24.65;11.52;;;;;;;;;;4914168;29;20036;-62
2022/01/30 14:02:53;;;;;;;22.25;10.88;;;;;;;;;;4913899;29;20033;-62
2022/01/30 14:05:29;;;;;;;21.92;10.80;;;;;;;;;;4914057;29;20544;-62
2022/01/30 14:07:56;;;;;;;25.73;11.60;;;;;;;;;;4913758;29;20431;-60
2022/01/30 14:10:23;;;;;;;22.58;11.48;;;;;;;;;;4913617;29;20067;-61
2022/01/30 14:12:54;;;;;;;20.90;11.02;;;;;;;;;;4913929;29;20020;-61
2022/01/30 14:15:21;;;;;;;23.83;11.35;;;;;;;;;;4913982;29;20039;-60
2022/01/30 14:18:05;;;;;;;20.92;10.52;;;;;;;;;;4914115;29;20532;-60
2022/01/30 14:20:31;;;;;;;23.10;10.52;;;;;;;;;;4913769;29;20029;-61
2022/01/30 14:23:11;;;;;;;22.15;10.07;;;;;;;;;;4947642;29;20054;-61
2022/01/30 14:25:37;;;;;;;20.95;10.63;;;;;;;;;;4954092;29;20039;-61
2022/01/30 14:28:03;;;;;;;21.58;10.77;;;;;;;;;;4954102;29;20030;-60
2022/01/30 14:30:38;;;;;;;24.58;11.45;;;;;;;;;;4954177;29;20070;-61
2022/01/30 14:33:05;;;;;;;22.67;11.80;;;;;;;;;;4954153;29;20027;-60
2022/01/30 14:35:36;;;;;;;24.80;11.20;;;;;;;;;;4954275;29;20031;-61
2022/01/30 14:38:06;;;;;;;21.13;10.48;;;;;;;;;;4959776;28;20512;-62
2022/01/30 14:40:35;;;;;;;25.95;11.43;;;;;;;;;;4973089;28;20109;-62
2022/01/30 14:43:01;;;;;;;19.17;9.85;;;;;;;;;;4973242;28;20089;-62
2022/01/30 14:45:28;;;;;;;24.30;10.30;;;;;;;;;;4973077;28;20105;-62
2022/01/30 14:47:54;;;;;;;22.13;11.07;;;;;;;;;;4973486;28;20598;-62
2022/01/30 14:50:20;;;;;;;23.17;10.80;;;;;;;;;;4973180;28;20502;-62
2022/01/30 14:52:47;;;;;;;26.48;12.43;;;;;;;;;;4973005;28;20031;-62
2022/01/30 14:55:13;;;;;;;25.90;12.80;;;;;;;;;;4972971;28;20431;-62
2022/01/30 14:57:39;;;;;;;21.83;10.25;;;;;;;;;;4972871;28;20029;-62
2022/01/30 15:00:05;;;;;;;17.30;8.20;;;;;;;;;;4972612;28;20379;-61
2022/01/30 15:02:31;;;;;;;21.58;9.20;;;;;;;;;;4972410;28;20113;-62
2022/01/30 15:04:57;;;;;;;26.50;11.38;;;;;;;;;;4972103;28;20030;-62
2022/01/30 15:07:23;;;;;;;15.25;6.75;;;;;;;;;;4972699;28;20030;-62
2022/01/30 15:09:49;;;;;;;15.07;5.78;;;;;;;;;;4972364;28;20046;-62
2022/01/30 15:12:16;;;;;;;17.58;6.68;;;;;;;;;;4972525;28;20463;-62
2022/01/30 15:14:49;;;;;;;16.83;6.18;;;;;;;;;;4972730;28;20023;-62
2022/01/30 15:17:20;;;;;;;14.43;5.82;;;;;;;;;;4971810;28;20080;-62
2022/01/30 15:19:46;;;;;;;23.33;8.32;;;;;;;;;;4972542;28;20026;-62
2022/01/30 15:22:13;;;;;;;21.75;7.10;;;;;;;;;;4972561;28;20098;-61
2022/01/30 15:24:40;;;;;;;19.63;5.60;;;;;;;;;;4972482;28;20038;-62
2022/01/30 15:27:06;;;;;;;16.15;5.60;;;;;;;;;;4972561;28;20029;-62
2022/01/30 15:29:32;;;;;;;19.55;6.90;;;;;;;;;;4972420;28;20034;-61
2022/01/30 15:31:59;;;;;;;19.90;6.90;;;;;;;;;;4972386;28;20030;-60
2022/01/30 15:34:25;;;;;;;25.55;7.95;;;;;;;;;;4971916;28;20049;-62
2022/01/30 15:36:51;;;;;;;21.55;8.73;;;;;;;;;;4972082;28;20436;-61
2022/01/30 15:39:17;;;;;;;20.83;8.45;;;;;;;;;;4971663;28;20058;-62
2022/01/30 15:41:43;;;;;;;21.80;7.72;;;;;;;;;;4972622;28;20037;-61
2022/01/30 15:44:13;;;;;;;20.77;7.38;;;;;;;;;;4972241;28;20069;-61
2022/01/30 15:49:24;;;;;;;13.32;4.70;;;;;;;;;;4972613;28;20266;-60
2022/01/30 15:51:50;;;;;;;14.90;4.68;;;;;;;;;;4972452;28;20562;-61
2022/01/30 15:54:16;;;;;;;17.48;5.72;;;;;;;;;;4972216;28;20115;-60
2022/01/30 15:56:43;;;;;;;23.42;7.15;;;;;;;;;;4972351;28;20034;-61
2022/01/30 15:59:10;;;;;;;19.52;5.47;;;;;;;;;;4972545;28;20063;-62
2022/01/30 16:01:36;;;;;;;16.85;5.10;;;;;;;;;;4972104;28;20073;-61
2022/01/30 16:04:03;;;;;;;18.73;5.15;;;;;;;;;;4972184;28;20034;-60
2022/01/30 16:06:32;;;;;;;20.48;4.68;;;;;;;;;;4971749;28;20487;-60
2022/01/30 16:09:11;;;;;;;24.52;4.82;;;;;;;;;;4971724;28;20035;-60
2022/01/30 16:16:55;;;;;;;26.17;7.30;;;;;;;;;;4975773;28;20081;-61
2022/01/30 16:19:21;;;;;;;33.90;7.85;;;;;;;;;;4975662;28;20027;-62
2022/01/30 16:21:47;;;;;;;34.30;7.55;;;;;;;;;;4975445;28;20036;-62
2022/01/30 16:24:13;;;;;;;31.00;6.93;;;;;;;;;;4975282;28;20033;-61
2022/01/30 16:26:39;;;;;;;39.30;7.72;;;;;;;;;;4975388;28;20487;-60
2022/01/30 16:29:06;;;;;;;28.38;6.22;;;;;;;;;;4969085;28;21282;-60
2022/01/30 16:31:32;;;;;;;34.00;5.18;;;;;;;;;;4959076;28;20043;-60
2022/01/30 16:33:59;;;;;;;31.05;5.70;;;;;;;;;;4954543;28;20027;-62
2022/01/30 16:36:26;;;;;;;44.10;8.20;;;;;;;;;;4964812;28;20101;-61
2022/01/30 16:38:52;;;;;;;38.53;6.57;;;;;;;;;;4963243;28;20047;-61
2022/01/30 16:41:20;;;;;;;41.95;6.18;;;;;;;;;;4964844;28;20502;-61
2022/01/30 16:48:58;;;;;;;50.15;6.38;;;;;;;;;;4963816;28;20035;-61
2022/01/30 16:51:24;;;;;;;45.83;6.30;;;;;;;;;;4966702;28;20035;-60
2022/01/30 16:53:51;;;;;;;24.67;5.85;;;;;;;;;;4975038;28;20112;-61
2022/01/30 16:56:18;;;;;;;38.20;5.55;;;;;;;;;;4975633;28;20101;-61
2022/01/30 16:58:44;;;;;;;39.63;5.15;;;;;;;;;;4975322;28;20027;-60
2022/01/30 17:01:10;;;;;;;38.75;4.63;;;;;;;;;;4975024;28;20027;-61
2022/01/30 17:03:36;;;;;;;43.05;4.75;;;;;;;;;;4975097;28;20062;-61
2022/01/30 17:06:03;;;;;;;45.95;4.80;;;;;;;;;;4974946;28;20030;-61
2022/01/30 17:08:31;;;;;;;38.45;5.22;;;;;;;;;;4974916;28;20039;-63
2022/01/30 17:11:01;;;;;;;46.25;5.18;;;;;;;;;;4956882;28;20054;-63
2022/01/30 17:13:27;;;;;;;32.28;4.22;;;;;;;;;;4959833;28;20053;-64
2022/01/30 17:15:54;;;;;;;35.75;3.95;;;;;;;;;;4962376;28;20031;-61
2022/01/30 17:18:21;;;;;;;37.42;4.72;;;;;;;;;;4968607;28;20019;-61
2022/01/30 17:20:48;;;;;;;35.67;4.32;;;;;;;;;;4964385;28;20027;-61
2022/01/30 17:23:15;;;;;;;40.15;6.03;;;;;;;;;;4964049;28;20036;-60
2022/01/30 17:25:44;;;;;;;29.15;5.07;;;;;;;;;;4962144;28;20121;-61
2022/01/30 17:28:11;;;;;;;38.03;5.30;;;;;;;;;;4963193;28;20022;-60
2022/01/30 17:30:37;;;;;;;38.60;4.43;;;;;;;;;;4964476;28;20042;-60
2022/01/30 17:33:07;;;;;;;25.23;4.35;;;;;;;;;;4955889;28;20440;-62
2022/01/30 17:35:33;;;;;;;40.90;5.53;;;;;;;;;;4956149;29;20406;-61
2022/01/30 17:38:00;;;;;;;36.03;4.97;;;;;;;;;;4955142;29;20066;-61
2022/01/30 17:40:27;;;;;;;43.20;6.35;;;;;;;;;;4954974;28;20090;-61
2022/01/30 17:42:53;;;;;;;39.70;6.68;;;;;;;;;;4955193;29;20395;-60
2022/01/30 17:45:20;;;;;;;38.13;6.72;;;;;;;;;;4955208;29;20027;-60
2022/01/30 17:47:46;;;;;;;29.27;5.45;;;;;;;;;;4955006;29;20031;-61
2022/01/30 17:50:13;;;;;;;37.50;6.43;;;;;;;;;;4954844;29;20498;-60
2022/01/30 17:52:40;;;;;;;39.95;6.10;;;;;;;;;;4954492;29;20079;-61
2022/01/30 17:55:07;;;;;;;32.67;7.68;;;;;;;;;;4954825;29;20138;-60
2022/01/30 17:57:34;;;;;;;32.88;7.15;;;;;;;;;;4954540;29;20086;-62
2022/01/30 18:00:00;;;;;;;36.50;6.70;;;;;;;;;;4954901;29;20058;-62
2022/01/30 18:02:26;;;;;;;33.42;5.22;;;;;;;;;;4954875;29;20035;-61
2022/01/30 18:04:55;;;;;;;18.42;4.38;;;;;;;;;;4954406;29;20038;-61
2022/01/30 18:07:27;;;;;;;28.58;5.00;;;;;;;;;;4954600;29;20035;-60
2022/01/30 18:09:53;;;;;;;26.75;5.00;;;;;;;;;;4954115;29;20043;-60
2022/01/30 18:12:20;;;;;;;28.23;4.82;;;;;;;;;;4954607;29;20126;-61
2022/01/30 18:14:46;;;;;;;27.05;5.30;;;;;;;;;;4954509;29;20023;-59
2022/01/30 18:17:12;;;;;;;35.90;6.55;;;;;;;;;;4954544;29;20506;-59
2022/01/30 18:19:38;;;;;;;26.58;5.25;;;;;;;;;;4954359;29;20035;-60
2022/01/30 18:22:04;;;;;;;25.30;4.47;;;;;;;;;;4958004;28;20388;-60
2022/01/30 18:24:31;;;;;;;28.75;5.75;;;;;;;;;;4983310;28;20033;-59
2022/01/30 18:26:57;;;;;;;27.00;5.20;;;;;;;;;;4992879;28;20030;-60
2022/01/30 18:29:24;;;;;;;25.42;4.50;;;;;;;;;;4992855;28;20101;-60
2022/01/30 18:31:52;;;;;;;23.10;4.38;;;;;;;;;;4992773;28;20030;-59
2022/01/30 18:34:19;;;;;;;32.17;5.53;;;;;;;;;;4992788;28;20018;-59
2022/01/30 18:36:48;;;;;;;33.53;3.97;;;;;;;;;;4993024;28;20530;-62
2022/01/30 18:41:59;;;;;;;33.35;4.88;;;;;;;;;;4992610;28;20500;-59
2022/01/30 18:44:26;;;;;;;40.92;7.57;;;;;;;;;;4993224;28;20491;-59
2022/01/30 18:46:53;;;;;;;40.50;8.50;;;;;;;;;;4975187;28;20027;-61
2022/01/30 18:49:21;;;;;;;29.17;7.28;;;;;;;;;;4992690;28;20026;-59
2022/01/30 18:51:47;;;;;;;33.85;5.13;;;;;;;;;;4992527;28;20038;-58
2022/01/30 18:54:13;;;;;;;30.15;5.53;;;;;;;;;;4992741;28;20023;-62
2022/01/30 18:56:40;;;;;;;41.17;6.80;;;;;;;;;;4992272;28;20050;-60
2022/01/30 18:59:06;;;;;;;33.25;5.35;;;;;;;;;;4992131;28;20098;-62
2022/01/30 19:01:32;;;;;;;43.45;5.88;;;;;;;;;;4991939;28;20033;-59
2022/01/30 19:03:58;;;;;;;34.35;5.53;;;;;;;;;;4992649;28;20105;-61
2022/01/30 19:06:27;;;;;;;32.95;5.20;;;;;;;;;;4958797;28;20046;-59
2022/01/30 19:08:53;;;;;;;50.03;6.35;;;;;;;;;;4992620;28;20113;-58
2022/01/30 19:11:20;;;;;;;43.75;6.30;;;;;;;;;;4991807;28;20379;-59
2022/01/30 19:13:46;;;;;;;41.72;7.10;;;;;;;;;;4992706;28;20057;-60
2022/01/30 19:16:12;;;;;;;37.45;7.47;;;;;;;;;;4992164;28;20385;-59
2022/01/30 19:18:38;;;;;;;39.08;8.07;;;;;;;;;;4991964;28;20022;-59
2022/01/30 19:21:04;;;;;;;40.50;6.32;;;;;;;;;;4983896;28;20575;-60
2022/01/30 19:23:30;;;;;;;41.05;7.60;;;;;;;;;;4972790;28;20023;-60
2022/01/30 19:25:56;;;;;;;35.60;6.80;;;;;;;;;;4972507;28;20038;-60
2022/01/30 19:28:23;;;;;;;25.98;6.35;;;;;;;;;;4972516;28;20096;-59
2022/01/30 19:30:49;;;;;;;40.05;6.72;;;;;;;;;;4969140;28;20411;-59
2022/01/30 19:33:15;;;;;;;32.63;7.13;;;;;;;;;;4969578;28;20478;-62
2022/01/30 19:35:45;;;;;;;39.97;8.18;;;;;;;;;;4972642;28;20037;-62
2022/01/30 19:38:11;;;;;;;26.02;7.35;;;;;;;;;;4965519;28;20431;-60
2022/01/30 19:40:37;;;;;;;39.08;7.53;;;;;;;;;;4972450;28;20110;-62
2022/01/30 19:43:03;;;;;;;30.67;8.77;;;;;;;;;;4966570;28;20027;-59
2022/01/30 19:45:34;;;;;;;28.63;7.47;;;;;;;;;;4954732;28;20364;-60
2022/01/30 19:48:02;;;;;;;29.15;6.75;;;;;;;;;;4938121;28;20038;-63
2022/01/30 19:50:28;;;;;;;22.48;6.50;;;;;;;;;;4963808;28;20425;-63
2022/01/30 19:52:54;;;;;;;26.95;5.93;;;;;;;;;;4966478;28;20023;-62
2022/01/30 19:55:21;;;;;;;20.20;6.20;;;;;;;;;;4970130;28;20025;-62
2022/01/30 19:57:47;;;;;;;33.20;6.50;;;;;;;;;;4976412;28;20035;-63
2022/01/30 20:00:17;;;;;;;24.83;5.80;;;;;;;;;;4969044;28;20395;-62
2022/01/30 20:02:44;;;;;;;25.30;6.05;;;;;;;;;;4964961;28;20086;-63
2022/01/30 20:05:10;;;;;;;22.27;5.68;;;;;;;;;;4964675;28;20026;-62
2022/01/30 20:07:36;;;;;;;35.30;6.85;;;;;;;;;;4965909;28;20418;-62
2022/01/30 20:10:04;;;;;;;22.58;5.10;;;;;;;;;;4964489;28;20375;-63
2022/01/30 20:12:30;;;;;;;20.50;4.47;;;;;;;;;;4964731;28;20474;-63
2022/01/30 20:14:56;;;;;;;15.57;4.25;;;;;;;;;;4965739;28;20019;-62
2022/01/30 20:17:22;;;;;;;16.13;4.53;;;;;;;;;;4964543;28;20023;-63
2022/01/30 20:19:48;;;;;;;21.63;4.70;;;;;;;;;;4965043;28;20022;-62
2022/01/30 20:22:14;;;;;;;20.55;5.10;;;;;;;;;;4966077;28;20027;-63
2022/01/30 20:24:40;;;;;;;18.98;5.15;;;;;;;;;;4964059;28;20534;-62
2022/01/30 20:27:07;;;;;;;16.27;5.03;;;;;;;;;;4966858;28;20022;-62
2022/01/30 20:29:34;;;;;;;18.38;5.15;;;;;;;;;;4964430;28;20019;-61
2022/01/30 20:32:00;;;;;;;16.00;4.10;;;;;;;;;;4964574;28;20027;-62
2022/01/30 20:34:26;;;;;;;14.65;4.00;;;;;;;;;;4968531;28;20029;-62
2022/01/30 20:36:52;;;;;;;13.20;3.92;;;;;;;;;;4975553;28;20038;-63
2022/01/30 20:39:18;;;;;;;16.42;3.50;;;;;;;;;;4978655;28;20046;-64
2022/01/30 20:41:46;;;;;;;14.25;3.70;;;;;;;;;;4968421;28;20059;-61
2022/01/30 20:44:12;;;;;;;16.25;4.35;;;;;;;;;;4964610;28;20489;-61
2022/01/30 20:46:38;;;;;;;21.02;4.05;;;;;;;;;;4947870;28;20383;-62
2022/01/30 20:49:05;;;;;;;14.70;4.20;;;;;;;;;;4972475;28;20107;-59
2022/01/30 20:51:31;;;;;;;10.55;3.20;;;;;;;;;;4975960;28;20058;-58
2022/01/30 20:53:57;;;;;;;9.98;3.55;;;;;;;;;;4967141;28;20038;-62
2022/01/30 20:56:24;;;;;;;18.40;3.67;;;;;;;;;;4965085;28;20027;-61
2022/01/30 20:58:50;;;;;;;15.20;4.35;;;;;;;;;;4975354;28;20119;-60
2022/01/30 21:01:16;;;;;;;13.07;3.80;;;;;;;;;;4966052;28;20027;-62
2022/01/30 21:03:43;;;;;;;13.98;3.60;;;;;;;;;;4963227;28;20019;-60
2022/01/30 21:06:09;;;;;;;20.27;3.75;;;;;;;;;;4966475;28;20106;-60
2022/01/30 21:08:37;;;;;;;12.40;4.03;;;;;;;;;;4968349;28;20109;-62
2022/01/30 21:11:04;;;;;;;16.50;3.85;;;;;;;;;;4963774;28;20090;-60
2022/01/30 21:13:33;;;;;;;14.50;4.00;;;;;;;;;;4961980;28;20705;-61
2022/01/30 21:15:59;;;;;;;16.20;4.20;;;;;;;;;;4955382;28;20050;-62
2022/01/30 21:18:26;;;;;;;16.00;4.03;;;;;;;;;;4955266;29;20036;-60
2022/01/30 21:20:52;;;;;;;19.33;4.03;;;;;;;;;;4954759;28;20229;-61
2022/01/30 21:23:19;;;;;;;18.30;5.72;;;;;;;;;;4959785;28;20027;-61
2022/01/30 21:25:47;;;;;;;13.77;4.68;;;;;;;;;;4964972;28;20034;-59
2022/01/30 21:28:14;;;;;;;10.50;3.60;;;;;;;;;;4969955;28;20432;-62
2022/01/30 21:30:40;;;;;;;12.23;4.20;;;;;;;;;;4974262;28;20035;-61
2022/01/30 21:33:10;;;;;;;15.18;3.92;;;;;;;;;;4965054;28;20031;-62
2022/01/30 21:35:36;;;;;;;11.40;3.92;;;;;;;;;;4957611;28;20059;-61
2022/01/30 21:38:02;;;;;;;13.00;4.03;;;;;;;;;;4965315;28;20085;-61
2022/01/30 21:40:28;;;;;;;16.63;3.75;;;;;;;;;;4973761;28;20382;-61
2022/01/30 21:42:54;;;;;;;9.40;3.40;;;;;;;;;;4974055;28;20627;-61
2022/01/30 21:45:20;;;;;;;15.73;3.85;;;;;;;;;;4974154;28;20454;-61
2022/01/30 21:47:46;;;;;;;14.77;3.90;;;;;;;;;;4974187;28;20475;-60
2022/01/30 21:50:12;;;;;;;14.77;3.65;;;;;;;;;;4974180;28;20082;-61
2022/01/30 21:52:38;;;;;;;11.88;4.30;;;;;;;;;;4974031;28;20105;-61
2022/01/30 21:55:05;;;;;;;11.48;3.53;;;;;;;;;;4970612;28;20032;-60
2022/01/30 21:57:31;;;;;;;11.23;4.05;;;;;;;;;;4961092;28;20035;-61
2022/01/30 21:59:57;;;;;;;14.60;3.85;;;;;;;;;;4954364;28;20027;-61
2022/01/30 22:02:23;;;;;;;13.48;3.47;;;;;;;;;;4954542;29;20103;-61
2022/01/30 22:04:49;;;;;;;13.82;3.83;;;;;;;;;;4954100;29;20031;-61
2022/01/30 22:07:16;;;;;;;9.90;3.63;;;;;;;;;;4954255;29;20030;-61
2022/01/30 22:09:42;;;;;;;10.50;3.95;;;;;;;;;;4953859;28;20028;-60
2022/01/30 22:12:38;;;;;;;11.43;4.15;;;;;;;;;;4953956;28;20031;-61
2022/01/30 22:15:09;;;;;;;12.55;4.00;;;;;;;;;;4954406;29;20057;-61
2022/01/30 22:17:36;;;;;;;9.95;3.28;;;;;;;;;;4954304;29;20395;-61
2022/01/30 22:20:03;;;;;;;12.55;3.80;;;;;;;;;;4954177;29;20102;-61
2022/01/30 22:22:29;;;;;;;14.95;3.78;;;;;;;;;;4958415;28;20060;-60
2022/01/30 22:24:57;;;;;;;12.15;3.65;;;;;;;;;;4959034;28;20027;-61
2022/01/30 22:27:23;;;;;;;12.23;3.83;;;;;;;;;;4961949;28;20099;-61
2022/01/30 22:29:49;;;;;;;16.77;4.25;;;;;;;;;;4962183;28;20030;-60
2022/01/30 22:32:18;;;;;;;9.00;3.42;;;;;;;;;;4963245;28;20034;-60